.
WxDataArchive / Data Records for 2015-09-06
2015-09-05 September 2015 2015-09-07

Data Records for Sunday, 06 September 2015

Time	Temp	Chill	HIndex	Humid	Dewpt	 Wind 	HiWind	WindDir	Rain 	Barom
-----	----	-----	------	-----	-----	------	------	-------	-----	-----
00:00	68.4	68.4	68.4	93	66.3	0	0	---	0.00	30.084 
00:05	68.4	68.4	68.4	94	66.6	0	0	---	0.00	30.084 
00:10	68.3	68.3	68.3	94	66.5	0	0	---	0.00	30.084 
00:15	68.3	68.3	68.3	94	66.5	0	0	---	0.00	30.080 
00:20	68.1	68.1	68.1	94	66.3	0	0	---	0.00	30.080 
00:25	67.9	67.9	67.9	94	66.1	0	0	---	0.00	30.080 
00:30	67.9	67.9	67.9	94	66.1	0	0	---	0.00	30.074 
00:35	67.8	67.8	67.8	94	66.0	0	0	---	0.00	30.074 
00:40	67.6	67.6	67.6	94	65.8	0	0	---	0.00	30.074 
00:45	67.6	67.6	67.6	94	65.8	0	0	---	0.00	30.072 
00:50	67.6	67.6	67.6	94	65.8	0	0	---	0.00	30.072 
00:55	67.4	67.4	67.4	94	65.6	0	0	---	0.00	30.072 
01:00	67.3	67.3	67.3	94	65.5	0	0	---	0.00	30.062 
01:05	67.3	67.3	67.3	94	65.5	0	0	---	0.00	30.062 
01:10	67.3	67.3	67.3	94	65.5	0	0	---	0.00	30.062 
01:15	67.3	67.3	67.3	94	65.5	0	0	---	0.00	30.063 
01:20	67.1	67.1	67.1	94	65.3	0	0	---	0.00	30.063 
01:25	66.9	66.9	66.9	94	65.1	0	0	---	0.00	30.063 
01:30	66.9	66.9	66.9	94	65.1	0	0	---	0.00	30.061 
01:35	66.9	66.9	66.9	94	65.1	0	0	---	0.00	30.061 
01:40	66.9	66.9	66.9	94	65.1	0	0	---	0.00	30.061 
01:45	66.9	66.9	66.9	95	65.4	0	0	---	0.00	30.064 
01:50	67.1	67.1	67.1	95	65.6	0	0	---	0.00	30.064 
01:55	66.9	66.9	66.9	95	65.4	0	0	---	0.00	30.064 
02:00	66.9	66.9	66.9	95	65.4	0	0	---	0.00	30.060 
02:05	66.9	66.9	66.9	95	65.4	0	0	---	0.00	30.060 
02:10	66.9	66.9	66.9	95	65.4	0	0	---	0.00	30.060 
02:15	67.1	67.1	67.1	95	65.6	0	0	---	0.00	30.065 
02:20	67.1	67.1	67.1	95	65.6	0	0	---	0.00	30.065 
02:25	66.9	66.9	66.9	95	65.4	0	0	---	0.00	30.065 
02:30	66.9	66.9	66.9	95	65.4	0	0	---	0.00	30.066 
02:35	66.9	66.9	66.9	95	65.4	0	0	---	0.00	30.066 
02:40	66.9	66.9	66.9	95	65.4	0	0	---	0.00	30.066 
02:45	66.9	66.9	66.9	95	65.4	0	0	---	0.00	30.066 
02:50	66.9	66.9	66.9	95	65.4	0	0	---	0.00	30.066 
02:55	66.8	66.8	66.8	95	65.3	0	0	---	0.00	30.066 
03:00	66.6	66.6	66.6	95	65.1	0	0	---	0.00	30.069 
03:05	66.4	66.4	66.4	95	64.9	0	0	---	0.00	30.069 
03:10	66.3	66.3	66.3	95	64.8	0	0	---	0.00	30.069 
03:15	66.3	66.3	66.3	95	64.8	0	0	---	0.00	30.066 
03:20	66.0	66.0	66.0	95	64.5	0	0	---	0.00	30.066 
03:25	66.0	66.0	66.0	95	64.5	0	0	---	0.00	30.066 
03:30	65.8	65.8	65.8	95	64.3	0	0	---	0.00	30.064 
03:35	65.8	65.8	65.8	95	64.3	0	0	---	0.00	30.064 
03:40	65.6	65.6	65.6	95	64.1	0	0	---	0.00	30.064 
03:45	65.6	65.6	65.6	95	64.1	0	0	---	0.00	30.064 
03:50	65.6	65.6	65.6	95	64.1	0	0	---	0.00	30.064 
03:55	65.5	65.5	65.5	95	64.0	0	0	---	0.00	30.064 
04:00	65.5	65.5	65.5	95	64.0	0	0	---	0.00	30.061 
04:05	65.5	65.5	65.5	96	64.3	0	0	---	0.00	30.061 
04:10	65.5	65.5	65.5	96	64.3	0	0	---	0.00	30.061 
04:15	65.5	65.5	65.5	95	64.0	0	0	---	0.00	30.057 
04:20	65.5	65.5	65.5	96	64.3	0	0	---	0.00	30.057 
04:25	65.6	65.6	65.6	96	64.4	0	0	---	0.00	30.057 
04:30	65.5	65.5	65.5	96	64.3	0	0	---	0.00	30.050 
04:35	65.5	65.5	65.5	96	64.3	0	0	---	0.00	30.050 
04:40	65.3	65.3	65.3	96	64.1	0	0	---	0.00	30.050 
04:45	65.2	65.2	65.2	96	64.0	0	0	---	0.00	30.061 
04:50	65.2	65.2	65.2	96	64.0	0	0	---	0.00	30.061 
04:55	65.0	65.0	65.0	96	63.8	0	0	---	0.00	30.061 
05:00	65.0	65.0	65.0	96	63.8	0	0	---	0.00	30.060 
05:05	65.0	65.0	65.0	96	63.8	0	0	---	0.00	30.060 
05:10	65.0	65.0	65.0	96	63.8	0	0	---	0.00	30.060 
05:15	64.8	64.8	64.8	96	63.6	0	0	---	0.00	30.059 
05:20	64.8	64.8	64.8	96	63.6	0	0	---	0.00	30.059 
05:25	64.7	64.7	64.7	96	63.5	0	0	---	0.00	30.059 
05:30	64.7	64.7	64.7	96	63.5	0	0	---	0.00	30.060 
05:35	64.7	64.7	64.7	96	63.5	0	0	---	0.00	30.060 
05:40	64.5	64.5	64.5	96	63.3	0	0	---	0.00	30.060 
05:45	64.5	64.5	64.5	96	63.3	0	0	---	0.00	30.060 
05:50	64.5	64.5	64.5	96	63.3	0	0	---	0.00	30.060 
05:55	64.7	64.7	64.7	96	63.5	0	0	---	0.00	30.060 
06:00	64.7	64.7	64.7	96	63.5	0	0	---	0.00	30.061 
06:05	64.5	64.5	64.5	96	63.3	0	0	---	0.00	30.061 
06:10	64.5	64.5	64.5	96	63.3	0	0	---	0.00	30.061 
06:15	64.3	64.3	64.3	96	63.1	0	0	---	0.00	30.068 
06:20	64.2	64.2	64.2	96	63.0	0	0	---	0.00	30.068 
06:25	64.0	64.0	64.0	96	62.8	0	0	---	0.00	30.068 
06:30	64.0	64.0	64.0	96	62.8	0	0	---	0.00	30.072 
06:35	64.0	64.0	64.0	96	62.8	0	0	---	0.00	30.072 
06:40	64.0	64.0	64.0	96	62.8	0	0	---	0.00	30.072 
06:45	64.0	64.0	64.0	96	62.8	0	0	---	0.00	30.071 
06:50	63.9	63.9	63.9	96	62.7	0	0	---	0.00	30.071 
06:55	63.9	63.9	63.9	96	62.7	0	0	---	0.00	30.071 
07:00	63.9	63.9	63.9	96	62.7	0	0	---	0.00	30.070 
07:05	63.7	63.7	63.7	96	62.5	0	0	---	0.00	30.070 
07:10	63.7	63.7	63.7	96	62.5	0	0	---	0.00	30.070 
07:15	63.7	63.7	63.7	96	62.5	0	0	---	0.00	30.080 
07:20	63.7	63.7	63.7	96	62.5	0	0	---	0.00	30.080 
07:25	63.7	63.7	63.7	96	62.5	0	0	---	0.00	30.080 
07:30	63.7	63.7	63.7	96	62.5	0	0	---	0.00	30.082 
07:35	63.7	63.7	63.7	96	62.5	0	0	---	0.00	30.082 
07:40	63.7	63.7	63.7	96	62.5	0	0	---	0.00	30.082 
07:45	63.9	63.9	63.9	96	62.7	0	0	---	0.00	30.082 
07:50	63.9	63.9	63.9	96	62.7	0	0	---	0.00	30.082 
07:55	64.0	64.0	64.0	96	62.8	0	0	---	0.00	30.082 
08:00	64.2	64.2	64.2	96	63.0	0	0	---	0.00	30.081 
08:05	64.3	64.3	64.3	96	63.1	0	0	---	0.00	30.081 
08:10	64.7	64.7	64.7	96	63.5	0	0	---	0.00	30.081 
08:15	65.0	65.0	65.0	96	63.8	0	0	---	0.00	30.086 
08:20	65.5	65.5	65.5	96	64.3	0	0	---	0.00	30.086 
08:25	66.0	66.0	66.0	96	64.8	0	0	---	0.00	30.086 
08:30	66.3	66.3	66.3	96	65.1	0	0	---	0.00	30.089 
08:35	66.6	66.6	66.6	96	65.4	0	0	---	0.00	30.089 
08:40	66.9	66.9	66.9	96	65.7	0	0	---	0.00	30.089 
08:45	67.3	67.3	67.3	96	66.1	0	0	---	0.00	30.090 
08:50	67.6	67.6	67.6	97	66.7	0	0	---	0.00	30.090 
08:55	67.9	67.9	67.9	96	66.7	0	0	---	0.00	30.090 
09:00	68.3	68.3	68.3	96	67.1	0	0	---	0.00	30.086 
09:05	68.4	68.4	68.4	96	67.2	0	1	68	0.00	30.086 
09:10	68.8	68.8	68.8	96	67.6	0	0	---	0.00	30.086 
09:15	69.1	69.1	69.1	96	67.9	0	0	---	0.00	30.085 
09:20	69.4	69.4	69.4	96	68.2	0	1	68	0.00	30.085 
09:25	69.6	69.6	69.6	96	68.4	0	0	---	0.00	30.085 
09:30	69.9	69.9	69.9	96	68.7	0	1	68	0.00	30.083 
09:35	70.3	70.3	70.3	96	69.1	0	1	68	0.00	30.083 
09:40	70.6	70.6	70.6	96	69.4	0	1	68	0.00	30.083 
09:45	70.9	70.9	70.9	96	69.7	0	1	68	0.00	30.079 
09:50	71.3	71.3	71.3	95	69.8	0	1	68	0.00	30.079 
09:55	71.6	71.6	71.6	94	69.8	0	1	68	0.00	30.079 
10:00	72.0	72.0	72.0	93	69.9	0	1	68	0.00	30.084 
10:05	72.3	72.3	72.3	91	69.5	0	1	68	0.00	30.084 
10:10	72.8	72.8	72.8	90	69.7	0	1	68	0.00	30.084 
10:15	73.5	73.5	73.5	89	70.0	0	0	---	0.00	30.082 
10:20	74.2	74.2	74.2	86	69.7	0	0	---	0.00	30.082 
10:25	75.3	75.3	75.8	82	69.4	0	1	68	0.00	30.082 
10:30	76.5	76.5	77.9	77	68.7	0	1	68	0.00	30.079 
10:35	77.7	77.7	79.7	73	68.3	0	1	68	0.00	30.079 
10:40	79.0	79.0	81.3	69	67.9	0	1	68	0.00	30.079 
10:45	79.8	79.8	82.6	70	69.1	0	0	---	0.00	30.076 
10:50	80.7	80.7	83.5	66	68.3	0	1	68	0.00	30.076 
10:55	81.2	81.2	84.1	65	68.3	0	1	68	0.00	30.076 
11:00	81.4	81.4	84.6	66	68.9	0	1	68	0.00	30.086 
11:05	81.6	81.6	84.6	64	68.2	0	2	68	0.00	30.086 
11:10	82.4	82.4	85.6	63	68.5	0	2	68	0.00	30.086 
11:15	83.0	83.0	86.1	61	68.1	0	1	68	0.00	30.086 
11:20	83.8	83.8	87.5	61	68.9	0	1	68	0.00	30.086 
11:25	84.3	84.3	87.5	58	67.9	0	1	68	0.00	30.086 
11:30	84.7	84.7	88.7	60	69.2	0	1	68	0.00	30.086 
11:35	84.3	84.3	87.5	58	67.9	0	1	68	0.00	30.086 
11:40	84.1	84.1	87.4	59	68.2	0	1	68	0.00	30.086 
11:45	83.8	83.8	86.7	58	67.4	0	2	68	0.00	30.088 
11:50	83.6	83.6	86.4	58	67.2	0	2	68	0.00	30.088 
11:55	83.2	83.2	86.0	59	67.4	0	2	68	0.00	30.088 
12:00	83.8	83.8	87.5	61	68.9	0	1	68	0.00	30.088 
12:05	84.1	84.1	86.9	57	67.2	0	1	68	0.00	30.088 
12:10	84.1	84.1	86.9	57	67.2	1	2	68	0.00	30.088 
12:15	84.0	84.0	87.0	58	67.6	0	1	68	0.00	30.089 
12:20	84.0	84.0	86.7	57	67.1	0	2	68	0.00	30.089 
12:25	84.7	84.7	87.9	57	67.7	0	2	68	0.00	30.089 
12:30	85.5	85.5	88.6	55	67.5	0	1	68	0.00	30.085 
12:35	86.3	86.3	88.9	52	66.6	0	1	68	0.00	30.085 
12:40	86.1	86.1	88.6	52	66.4	0	2	68	0.00	30.085 
12:45	86.1	86.1	89.2	54	67.5	0	1	68	0.00	30.083 
12:50	85.7	85.7	87.4	50	64.9	0	3	68	0.00	30.083 
12:55	85.3	85.3	88.0	54	66.7	0	2	68	0.00	30.083 
13:00	85.3	85.3	88.2	55	67.3	0	1	68	0.00	30.082 
13:05	85.9	85.9	88.6	53	66.7	0	1	68	0.00	30.082 
13:10	86.7	86.7	88.6	49	65.2	0	1	68	0.00	30.082 
13:15	87.2	87.2	89.7	50	66.3	0	1	68	0.00	30.075 
13:20	86.7	86.7	88.6	49	65.2	0	2	68	0.00	30.075 
13:25	86.7	86.7	89.3	51	66.4	0	1	68	0.00	30.075 
13:30	86.7	86.7	88.9	50	65.8	1	6	0	0.00	30.068 
13:35	87.0	87.0	89.4	50	66.1	1	6	315	0.00	30.068 
13:40	86.7	86.7	87.5	45	62.8	0	2	315	0.00	30.068 
13:45	86.7	86.7	87.0	43	61.5	0	2	315	0.00	30.069 
13:50	87.2	87.2	88.2	45	63.2	0	1	315	0.00	30.069 
13:55	87.8	87.8	88.5	43	62.5	0	2	315	0.00	30.069 
14:00	88.2	88.2	89.0	43	62.8	0	2	315	0.00	30.065 
14:05	88.2	88.2	89.0	43	62.8	1	3	315	0.00	30.065 
14:10	88.2	88.2	90.0	46	64.8	0	2	315	0.00	30.065 
14:15	87.8	87.8	88.5	43	62.5	0	2	315	0.00	30.062 
14:20	88.0	88.0	90.3	48	65.8	0	1	315	0.00	30.062 
14:25	88.0	88.0	88.7	43	62.7	0	2	315	0.00	30.062 
14:30	88.0	88.0	89.0	44	63.3	1	3	315	0.00	30.059 
14:35	87.8	87.8	89.1	45	63.8	0	1	315	0.00	30.059 
14:40	88.0	88.0	89.0	44	63.3	0	1	315	0.00	30.059 
14:45	88.0	88.0	89.4	45	64.0	0	2	315	0.00	30.056 
14:50	88.2	88.2	89.0	43	62.8	0	2	315	0.00	30.056 
14:55	88.0	88.0	89.0	44	63.3	1	4	315	0.00	30.056 
15:00	88.2	88.2	89.0	43	62.8	0	1	315	0.00	30.055 
15:05	88.6	88.6	89.6	43	63.2	0	1	315	0.00	30.055 
15:10	89.0	89.0	89.3	40	61.5	0	1	315	0.00	30.055 
15:15	89.7	89.7	90.2	40	62.1	0	2	315	0.00	30.048 
15:20	89.5	89.5	90.3	41	62.6	0	2	315	0.00	30.048 
15:25	89.0	89.0	90.2	43	63.6	1	3	0	0.00	30.048 
15:30	89.0	89.0	90.9	45	64.9	0	2	0	0.00	30.043 
15:35	89.3	89.3	90.0	41	62.5	0	1	0	0.00	30.043 
15:40	89.7	89.7	91.3	43	64.2	0	1	0	0.00	30.043 
15:45	89.7	89.7	90.6	41	62.8	0	2	0	0.00	30.037 
15:50	89.9	89.9	90.9	41	63.0	0	1	0	0.00	30.037 
15:55	90.3	90.3	90.8	39	61.9	0	1	0	0.00	30.037 
16:00	90.5	90.5	91.1	39	62.1	0	1	0	0.00	30.036 
16:05	90.5	90.5	92.9	44	65.6	0	0	---	0.00	30.036 
16:10	90.1	90.1	91.2	41	63.2	0	1	0	0.00	30.036 
16:15	89.9	89.9	91.6	43	64.4	0	1	0	0.00	30.031 
16:20	89.7	89.7	91.3	43	64.2	0	1	0	0.00	30.031 
16:25	89.5	89.5	91.3	44	64.7	0	2	0	0.00	30.031 
16:30	89.3	89.3	91.0	44	64.5	0	1	0	0.00	30.027 
16:35	88.8	88.8	90.2	44	64.0	0	3	0	0.00	30.027 
16:40	88.6	88.6	90.3	45	64.5	0	1	0	0.00	30.027 
16:45	88.8	88.8	90.9	46	65.3	0	1	0	0.00	30.022 
16:50	88.6	88.6	90.3	45	64.5	1	4	0	0.00	30.022 
16:55	88.6	88.6	91.0	47	65.7	0	1	112	0.00	30.022 
17:00	88.6	88.6	90.6	46	65.1	0	2	112	0.00	30.021 
17:05	88.6	88.6	91.0	47	65.7	0	2	112	0.00	30.021 
17:10	88.4	88.4	90.3	46	64.9	0	1	112	0.00	30.021 
17:15	88.2	88.2	90.0	46	64.8	0	1	112	0.00	30.022 
17:20	88.2	88.2	90.0	46	64.8	0	3	112	0.00	30.022 
17:25	88.0	88.0	90.0	47	65.2	0	2	112	0.00	30.022 
17:30	88.0	88.0	90.0	47	65.2	0	2	112	0.00	30.017 
17:35	87.8	87.8	90.0	48	65.6	0	2	112	0.00	30.017 
17:40	87.8	87.8	90.0	48	65.6	0	1	112	0.00	30.017 
17:45	87.8	87.8	90.0	48	65.6	0	2	112	0.00	30.013 
17:50	87.6	87.6	90.0	49	66.0	0	2	112	0.00	30.013 
17:55	87.6	87.6	90.4	50	66.6	0	1	112	0.00	30.013 
18:00	87.6	87.6	90.0	49	66.0	0	1	112	0.00	30.010 
18:05	87.4	87.4	90.1	50	66.4	0	1	112	0.00	30.010 
18:10	87.4	87.4	89.7	49	65.9	0	1	112	0.00	30.010 
18:15	87.2	87.2	89.7	50	66.3	0	1	112	0.00	30.011 
18:20	87.0	87.0	89.7	51	66.6	0	1	112	0.00	30.011 
18:25	86.7	86.7	88.9	50	65.8	0	1	112	0.00	30.011 
18:30	86.5	86.5	88.6	50	65.6	0	1	112	0.00	30.010 
18:35	86.1	86.1	88.3	51	65.8	0	1	112	0.00	30.010 
18:40	85.7	85.7	87.7	51	65.5	0	1	112	0.00	30.010 
18:45	85.5	85.5	87.7	52	65.8	0	1	112	0.00	30.009 
18:50	85.5	85.5	87.7	52	65.8	0	1	112	0.00	30.009 
18:55	85.3	85.3	87.7	53	66.2	0	0	---	0.00	30.009 
19:00	85.3	85.3	87.4	52	65.6	0	1	112	0.00	30.009 
19:05	85.1	85.1	87.1	52	65.5	0	1	112	0.00	30.009 
19:10	85.1	85.1	87.1	52	65.5	0	1	112	0.00	30.009 
19:15	84.9	84.9	87.1	53	65.8	0	0	---	0.00	30.005 
19:20	84.7	84.7	86.8	53	65.6	0	1	112	0.00	30.005 
19:25	84.5	84.5	86.5	53	65.5	0	1	112	0.00	30.005 
19:30	84.3	84.3	86.2	53	65.3	0	1	112	0.00	29.997 
19:35	84.1	84.1	86.2	54	65.6	0	0	---	0.00	29.997 
19:40	84.0	84.0	86.3	55	66.1	0	0	---	0.00	29.997 
19:45	83.6	83.6	85.9	56	66.2	0	0	---	0.00	29.993 
19:50	83.2	83.2	85.8	58	66.9	0	0	---	0.00	29.993 
19:55	82.6	82.6	84.9	58	66.3	0	0	---	0.00	29.993 
20:00	82.2	82.2	84.5	59	66.4	0	0	---	0.00	29.994 
20:05	81.8	81.8	84.1	60	66.5	0	0	---	0.00	29.994 
20:10	81.2	81.2	83.6	62	66.9	0	0	---	0.00	29.994 
20:15	80.9	80.9	83.2	62	66.6	0	0	---	0.00	29.993 
20:20	80.5	80.5	82.9	64	67.2	0	0	---	0.00	29.993 
20:25	80.1	80.1	82.5	65	67.2	0	0	---	0.00	29.993 
20:30	79.6	79.6	81.9	66	67.2	0	0	---	0.00	29.991 
20:35	79.2	79.2	81.5	67	67.3	0	0	---	0.00	29.991 
20:40	78.8	78.8	81.1	69	67.7	0	0	---	0.00	29.991 
20:45	78.5	78.5	80.8	71	68.3	0	0	---	0.00	29.996 
20:50	77.9	77.9	79.9	72	68.1	0	0	---	0.00	29.996 
20:55	77.7	77.7	79.7	73	68.3	0	0	---	0.00	29.996 
21:00	77.4	77.4	79.3	73	68.0	0	0	---	0.00	29.998 
21:05	77.0	77.0	78.7	73	67.7	0	0	---	0.00	29.998 
21:10	76.8	76.8	78.4	75	68.3	0	0	---	0.00	29.998 
21:15	76.5	76.5	78.0	75	68.0	0	0	---	0.00	30.003 
21:20	76.3	76.3	77.7	76	68.2	0	0	---	0.00	30.003 
21:25	76.1	76.1	77.4	77	68.3	0	0	---	0.00	30.003 
21:30	76.0	76.0	77.2	78	68.6	0	0	---	0.00	30.004 
21:35	75.8	75.8	76.9	78	68.4	0	0	---	0.00	30.004 
21:40	75.4	75.4	76.2	79	68.4	0	0	---	0.00	30.004 
21:45	75.3	75.3	76.0	80	68.7	0	0	---	0.00	30.010 
21:50	75.1	75.1	75.7	80	68.5	0	0	---	0.00	30.010 
21:55	74.9	74.9	74.9	80	68.3	0	0	---	0.00	30.010 
22:00	74.7	74.7	74.7	81	68.5	0	0	---	0.00	30.011 
22:05	74.7	74.7	74.7	81	68.5	0	0	---	0.00	30.011 
22:10	74.6	74.6	74.6	81	68.4	0	0	---	0.00	30.011 
22:15	74.4	74.4	74.4	80	67.8	0	0	---	0.00	30.004 
22:20	74.2	74.2	74.2	80	67.6	0	0	---	0.00	30.004 
22:25	74.0	74.0	74.0	79	67.1	0	0	---	0.00	30.004 
22:30	73.9	73.9	73.9	79	67.0	0	0	---	0.00	30.005 
22:35	73.9	73.9	73.9	79	67.0	0	0	---	0.00	30.005 
22:40	73.7	73.7	73.7	79	66.8	0	0	---	0.00	30.005 
22:45	73.5	73.5	73.5	79	66.6	0	0	---	0.00	30.007 
22:50	73.3	73.3	73.3	80	66.7	0	0	---	0.00	30.007 
22:55	73.2	73.2	73.2	80	66.6	0	0	---	0.00	30.007 
23:00	73.0	73.0	73.0	80	66.5	0	0	---	0.00	30.006 
23:05	72.8	72.8	72.8	81	66.6	0	0	---	0.00	30.006 
23:10	72.8	72.8	72.8	82	67.0	0	0	---	0.00	30.006 
23:15	72.8	72.8	72.8	83	67.3	0	0	---	0.00	30.005 
23:20	72.7	72.7	72.7	83	67.2	0	0	---	0.00	30.005 
23:25	72.5	72.5	72.5	83	67.0	0	0	---	0.00	30.005 
23:30	72.3	72.3	72.3	83	66.8	0	0	---	0.00	30.004 
23:35	72.1	72.1	72.1	83	66.6	0	0	---	0.00	30.004 
23:40	72.1	72.1	72.1	84	67.0	0	0	---	0.00	30.004 
23:45	72.0	72.0	72.0	84	66.9	0	0	---	0.00	30.004 
23:50	71.8	71.8	71.8	84	66.7	0	0	---	0.00	30.004 
23:55	71.6	71.6	71.6	85	66.8	0	0	---	0.00	30.004 

CoCoRaHS
IN-AL-39
A2 Web Hosting
Creative Commons License
GoDaddy
search engine by freefind advanced

loaded 2018-11-16 23:45:54 • last modified 2010-11-18 10:43:29
Privacy PolicyDisclaimer
• wx.awcolley.com is powered by PmWiki v.2002016 •
• all content (unless otherwise noted) © 2018 A W Colley